In Rescue
 
Open Full Screen Window  High Contrast Mode
Wind Gusting 00 knots
13
November 29, 2022 10:56 AM EST
Weather Information
Wind Direction
  150 °
Wind Speed
  13 kt (15 mph)
Wind Gust
  00 kt (0 mph)
Altimeter
30.05 in
Visibility
10 SM
Temperature
08° C
46° F
Dewpoint
04° C
39° F
Humidity
76%
1hr Rain Fall
00.00 in.
24hr Rain Fall
00.00 in.
Sky Condition
Overcast @ 3,500 ft
VFR

METAR KDLZ 291556Z AUTO 15013KT 10SM OVC035 08/04 A3005 RMK AO2

FAA Disclaimer: The data displayed is for advisory purposes only and is not to be used for flight planning or operations.